Time;durP1;ratioP1;P1;durP2;ratioP2;P2;SDS_P1;SDS_P2;PMS_P1;PMS_P2;Temp;Humidity;BMP_temperature;BMP_pressure;BME280_temperature;BME280_humidity;BME280_pressure;Samples;Min_cycle;Max_cycle;Signal;HPM_P1;HPM_P2
2022/03/09 00:00:22;;;;;;;10.43;6.55;;;;;;;;;;5066883;28;20401;-72
2022/03/09 00:02:48;;;;;;;11.18;6.63;;;;;;;;;;5072869;28;20016;-72
2022/03/09 00:05:13;;;;;;;17.08;5.88;;;;;;;;;;5072919;28;20017;-71
2022/03/09 00:07:38;;;;;;;10.02;5.93;;;;;;;;;;5072018;28;20032;-71
2022/03/09 00:10:03;;;;;;;11.63;6.28;;;;;;;;;;5071551;28;20462;-71
2022/03/09 00:12:29;;;;;;;14.65;6.75;;;;;;;;;;5071439;28;20032;-71
2022/03/09 00:14:54;;;;;;;11.27;6.40;;;;;;;;;;5072740;28;20059;-71
2022/03/09 00:17:19;;;;;;;10.63;6.43;;;;;;;;;;5059966;28;20452;-72
2022/03/09 00:19:44;;;;;;;14.77;6.82;;;;;;;;;;5052550;28;20027;-71
2022/03/09 00:22:09;;;;;;;8.10;5.60;;;;;;;;;;5052584;28;20025;-71
2022/03/09 00:24:35;;;;;;;9.43;6.38;;;;;;;;;;5052428;28;20389;-72
2022/03/09 00:27:00;;;;;;;11.32;6.88;;;;;;;;;;5051322;28;20025;-71
2022/03/09 00:29:25;;;;;;;11.25;6.20;;;;;;;;;;5052319;28;20029;-72
2022/03/09 00:31:50;;;;;;;12.13;6.30;;;;;;;;;;5050153;28;20037;-72
2022/03/09 00:34:16;;;;;;;10.93;5.50;;;;;;;;;;5058100;28;20021;-72
2022/03/09 00:36:41;;;;;;;13.95;6.25;;;;;;;;;;5072237;28;20529;-71
2022/03/09 00:39:06;;;;;;;9.93;5.95;;;;;;;;;;5071316;28;20094;-72
2022/03/09 00:41:31;;;;;;;11.48;6.20;;;;;;;;;;5072215;28;20024;-72
2022/03/09 00:43:56;;;;;;;8.43;5.85;;;;;;;;;;5071003;28;20029;-72
2022/03/09 00:46:22;;;;;;;13.15;6.20;;;;;;;;;;5072245;28;20054;-72
2022/03/09 00:48:47;;;;;;;15.27;6.38;;;;;;;;;;5071965;28;20447;-71
2022/03/09 00:51:12;;;;;;;11.70;5.75;;;;;;;;;;5072084;28;20060;-71
2022/03/09 00:53:38;;;;;;;10.90;6.25;;;;;;;;;;5071754;28;20020;-71
2022/03/09 00:56:03;;;;;;;10.38;6.72;;;;;;;;;;5070630;28;20083;-71
2022/03/09 00:58:28;;;;;;;12.00;6.88;;;;;;;;;;5070952;28;20024;-72
2022/03/09 01:00:53;;;;;;;10.63;6.75;;;;;;;;;;5071004;28;20045;-70
2022/03/09 01:03:18;;;;;;;13.25;6.25;;;;;;;;;;5054046;28;20016;-72
2022/03/09 01:05:44;;;;;;;10.98;6.28;;;;;;;;;;5052759;28;20033;-71
2022/03/09 01:08:09;;;;;;;9.82;6.25;;;;;;;;;;5051723;28;20025;-71
2022/03/09 01:10:34;;;;;;;11.27;7.10;;;;;;;;;;5061562;28;20522;-70
2022/03/09 01:12:59;;;;;;;10.27;6.15;;;;;;;;;;5070218;28;20021;-71
2022/03/09 01:15:25;;;;;;;10.55;6.10;;;;;;;;;;5071776;28;20020;-69
2022/03/09 01:17:50;;;;;;;11.10;6.53;;;;;;;;;;5067150;28;20081;-71
2022/03/09 01:20:15;;;;;;;9.07;5.78;;;;;;;;;;5071357;28;20370;-71
2022/03/09 01:22:40;;;;;;;11.63;6.38;;;;;;;;;;5071343;28;20027;-71
2022/03/09 01:25:06;;;;;;;12.60;7.07;;;;;;;;;;5071424;28;20063;-70
2022/03/09 01:27:31;;;;;;;10.30;6.40;;;;;;;;;;5071111;28;20031;-71
2022/03/09 01:29:56;;;;;;;12.13;6.57;;;;;;;;;;5053323;28;20562;-71
2022/03/09 01:32:22;;;;;;;10.40;6.25;;;;;;;;;;5070240;28;20120;-71
2022/03/09 01:34:47;;;;;;;8.90;5.65;;;;;;;;;;5065238;28;20036;-71
2022/03/09 01:37:13;;;;;;;9.05;5.35;;;;;;;;;;5051019;28;20021;-71
2022/03/09 01:39:38;;;;;;;8.48;5.63;;;;;;;;;;5050955;28;20445;-72
2022/03/09 01:42:03;;;;;;;9.55;5.88;;;;;;;;;;5051042;28;20032;-71
2022/03/09 01:44:29;;;;;;;9.35;5.82;;;;;;;;;;5051044;28;20017;-71
2022/03/09 01:46:54;;;;;;;10.73;6.20;;;;;;;;;;5065775;28;20051;-71
2022/03/09 01:49:20;;;;;;;10.65;5.72;;;;;;;;;;5069455;28;20023;-71
2022/03/09 01:51:47;;;;;;;12.10;6.78;;;;;;;;;;5069579;28;20037;-71
2022/03/09 01:54:12;;;;;;;11.77;6.45;;;;;;;;;;5070711;28;20511;-72
2022/03/09 01:56:37;;;;;;;17.92;7.40;;;;;;;;;;5056138;28;20033;-70
2022/03/09 01:59:03;;;;;;;10.93;6.30;;;;;;;;;;5050897;28;20512;-71
2022/03/09 02:01:28;;;;;;;13.60;7.38;;;;;;;;;;5049804;28;20030;-71
2022/03/09 02:03:53;;;;;;;14.25;7.82;;;;;;;;;;5050638;28;20021;-72
2022/03/09 02:06:19;;;;;;;13.50;8.02;;;;;;;;;;5049478;28;20029;-71
2022/03/09 02:11:28;;;;;;;21.45;9.70;;;;;;;;;;5049527;28;20375;-71
2022/03/09 02:13:53;;;;;;;22.25;9.55;;;;;;;;;;5069804;28;20036;-71
2022/03/09 02:16:18;;;;;;;21.17;9.52;;;;;;;;;;5070517;28;20392;-70
2022/03/09 02:18:44;;;;;;;19.38;9.85;;;;;;;;;;5070308;28;20032;-71
2022/03/09 02:21:10;;;;;;;17.17;9.98;;;;;;;;;;5070331;28;20074;-70
2022/03/09 02:23:35;;;;;;;18.25;9.77;;;;;;;;;;5069096;28;20459;-71
2022/03/09 02:26:00;;;;;;;17.65;9.55;;;;;;;;;;5069175;28;20029;-71
2022/03/09 02:28:26;;;;;;;18.00;9.73;;;;;;;;;;5068909;28;20020;-71
2022/03/09 02:30:54;;;;;;;22.75;10.27;;;;;;;;;;5067952;28;20066;-70
2022/03/09 02:33:20;;;;;;;19.85;10.70;;;;;;;;;;5070082;28;20051;-70
2022/03/09 02:35:45;;;;;;;22.58;10.30;;;;;;;;;;5070250;28;20438;-71
2022/03/09 02:38:10;;;;;;;21.95;11.25;;;;;;;;;;5068776;28;20396;-71
2022/03/09 02:40:35;;;;;;;23.55;10.75;;;;;;;;;;5065629;28;20091;-71
2022/03/09 02:43:01;;;;;;;20.83;9.35;;;;;;;;;;5050188;28;20087;-71
2022/03/09 02:45:26;;;;;;;16.02;9.02;;;;;;;;;;5050108;28;20478;-70
2022/03/09 02:47:51;;;;;;;16.05;8.18;;;;;;;;;;5048612;28;20025;-70
2022/03/09 02:50:16;;;;;;;16.30;9.07;;;;;;;;;;5049259;28;20025;-69
2022/03/09 02:52:42;;;;;;;19.25;10.02;;;;;;;;;;5065385;28;20021;-70
2022/03/09 02:55:07;;;;;;;20.45;9.02;;;;;;;;;;5050290;28;20477;-69
2022/03/09 02:57:32;;;;;;;16.00;9.15;;;;;;;;;;5049885;28;20028;-70
2022/03/09 02:59:57;;;;;;;19.50;8.00;;;;;;;;;;5048615;28;20029;-71
2022/03/09 03:02:23;;;;;;;16.40;9.00;;;;;;;;;;5049010;28;20033;-71
2022/03/09 03:04:48;;;;;;;19.88;9.65;;;;;;;;;;5049966;28;20020;-70
2022/03/09 03:07:13;;;;;;;21.65;10.38;;;;;;;;;;5049909;28;20025;-71
2022/03/09 03:09:38;;;;;;;18.83;9.68;;;;;;;;;;5056346;28;20104;-71
2022/03/09 03:12:03;;;;;;;18.80;10.20;;;;;;;;;;5070112;28;20398;-71
2022/03/09 03:14:29;;;;;;;23.15;10.45;;;;;;;;;;5067743;28;20024;-70
2022/03/09 03:16:54;;;;;;;22.40;10.48;;;;;;;;;;5049762;28;20025;-71
2022/03/09 03:19:19;;;;;;;19.88;10.00;;;;;;;;;;5049667;28;20048;-71
2022/03/09 03:21:44;;;;;;;19.67;10.02;;;;;;;;;;5049770;28;20029;-71
2022/03/09 03:24:09;;;;;;;17.80;9.30;;;;;;;;;;5049657;28;20074;-71
2022/03/09 03:26:35;;;;;;;16.30;9.30;;;;;;;;;;5049745;28;20435;-70
2022/03/09 03:29:00;;;;;;;16.88;9.55;;;;;;;;;;5049484;28;20117;-71
2022/03/09 03:31:25;;;;;;;22.80;9.32;;;;;;;;;;5048857;28;20033;-69
2022/03/09 03:33:50;;;;;;;21.35;9.48;;;;;;;;;;5063395;28;20504;-70
2022/03/09 03:36:15;;;;;;;17.52;8.23;;;;;;;;;;5069807;28;20070;-69
2022/03/09 03:38:41;;;;;;;17.70;9.38;;;;;;;;;;5069820;28;20146;-71
2022/03/09 03:41:06;;;;;;;22.13;8.45;;;;;;;;;;5069655;28;20024;-70
2022/03/09 03:43:31;;;;;;;13.85;7.90;;;;;;;;;;5053959;28;20016;-71
2022/03/09 03:45:56;;;;;;;18.00;9.10;;;;;;;;;;5049625;28;20021;-70
2022/03/09 03:48:21;;;;;;;17.58;9.57;;;;;;;;;;5049478;28;20032;-71
2022/03/09 03:50:47;;;;;;;16.30;8.73;;;;;;;;;;5049460;28;20040;-70
2022/03/09 03:53:12;;;;;;;16.67;8.63;;;;;;;;;;5049366;28;20072;-71
2022/03/09 03:55:37;;;;;;;19.42;10.30;;;;;;;;;;5049522;28;20078;-70
2022/03/09 03:58:03;;;;;;;20.08;9.15;;;;;;;;;;5049410;28;20495;-70
2022/03/09 04:00:28;;;;;;;19.63;10.85;;;;;;;;;;5048467;28;20044;-71
2022/03/09 04:02:53;;;;;;;18.55;9.82;;;;;;;;;;5052965;28;20389;-69
2022/03/09 04:05:18;;;;;;;19.17;9.48;;;;;;;;;;5053699;28;20036;-71
2022/03/09 04:07:44;;;;;;;24.08;11.13;;;;;;;;;;5054280;28;20033;-71
2022/03/09 04:10:09;;;;;;;18.10;9.93;;;;;;;;;;5051784;28;20033;-70
2022/03/09 04:12:34;;;;;;;24.20;10.48;;;;;;;;;;5052697;28;20025;-71
2022/03/09 04:14:59;;;;;;;22.38;10.35;;;;;;;;;;5052816;28;20025;-70
2022/03/09 04:17:25;;;;;;;27.50;10.52;;;;;;;;;;5052583;28;20021;-71
2022/03/09 04:19:50;;;;;;;16.45;9.32;;;;;;;;;;5052612;28;20429;-71
2022/03/09 04:22:15;;;;;;;19.25;9.85;;;;;;;;;;5052611;28;20644;-71
2022/03/09 04:24:40;;;;;;;18.70;9.73;;;;;;;;;;5052646;28;20024;-71
2022/03/09 04:27:05;;;;;;;16.67;9.32;;;;;;;;;;5064456;28;20020;-71
2022/03/09 04:29:31;;;;;;;20.33;9.73;;;;;;;;;;5072964;28;20024;-71
2022/03/09 04:31:56;;;;;;;17.30;9.60;;;;;;;;;;5071564;28;20135;-70
2022/03/09 04:34:21;;;;;;;18.10;10.48;;;;;;;;;;5072156;28;20486;-71
2022/03/09 04:36:46;;;;;;;19.92;10.30;;;;;;;;;;5072334;28;20033;-71
2022/03/09 04:39:11;;;;;;;24.02;10.05;;;;;;;;;;5070835;28;20020;-71
2022/03/09 04:41:36;;;;;;;21.98;10.10;;;;;;;;;;5072278;28;20543;-70
2022/03/09 04:44:02;;;;;;;20.27;9.52;;;;;;;;;;5070835;28;20358;-69
2022/03/09 04:46:27;;;;;;;18.60;10.00;;;;;;;;;;5072165;28;20667;-70
2022/03/09 04:48:53;;;;;;;21.17;10.27;;;;;;;;;;5067517;28;20028;-71
2022/03/09 04:51:18;;;;;;;21.83;10.30;;;;;;;;;;5065018;28;20047;-72
2022/03/09 04:53:43;;;;;;;22.42;10.25;;;;;;;;;;5057156;28;20025;-71
2022/03/09 04:56:08;;;;;;;17.25;9.65;;;;;;;;;;5063344;28;20027;-72
2022/03/09 04:58:33;;;;;;;17.73;9.60;;;;;;;;;;5065106;28;20020;-71
2022/03/09 05:00:59;;;;;;;19.30;10.93;;;;;;;;;;5058261;28;20090;-72
2022/03/09 05:03:24;;;;;;;19.40;10.60;;;;;;;;;;5058180;28;20027;-71
2022/03/09 05:05:49;;;;;;;18.98;10.80;;;;;;;;;;5052046;28;20094;-72
2022/03/09 05:08:14;;;;;;;24.05;12.10;;;;;;;;;;5070401;28;20024;-72
2022/03/09 05:10:39;;;;;;;24.90;12.77;;;;;;;;;;5061095;28;20036;-70
2022/03/09 05:13:05;;;;;;;28.20;13.85;;;;;;;;;;5060460;28;20040;-71
2022/03/09 05:15:30;;;;;;;25.00;11.95;;;;;;;;;;5062307;28;20020;-70
2022/03/09 05:17:55;;;;;;;22.02;12.00;;;;;;;;;;5066091;28;20073;-72
2022/03/09 05:20:20;;;;;;;25.85;11.25;;;;;;;;;;5066711;28;20026;-71
2022/03/09 05:22:46;;;;;;;20.83;11.50;;;;;;;;;;5065518;28;20020;-72
2022/03/09 05:25:11;;;;;;;32.40;12.68;;;;;;;;;;5061357;28;20074;-72
2022/03/09 05:27:37;;;;;;;25.33;12.43;;;;;;;;;;5059869;28;20091;-71
2022/03/09 05:30:02;;;;;;;20.45;11.93;;;;;;;;;;5063650;28;20100;-71
2022/03/09 05:32:27;;;;;;;24.80;10.95;;;;;;;;;;5053180;28;20041;-71
2022/03/09 05:34:52;;;;;;;21.85;10.65;;;;;;;;;;5064903;28;20017;-71
2022/03/09 05:37:18;;;;;;;20.65;11.23;;;;;;;;;;5047569;28;20021;-72
2022/03/09 05:39:43;;;;;;;19.27;10.77;;;;;;;;;;5063039;28;20032;-72
2022/03/09 05:42:08;;;;;;;25.40;12.02;;;;;;;;;;5066504;28;20020;-70
2022/03/09 05:44:34;;;;;;;19.05;10.15;;;;;;;;;;5065548;28;20024;-70
2022/03/09 05:46:59;;;;;;;20.25;10.68;;;;;;;;;;5064942;28;20028;-70
2022/03/09 05:49:24;;;;;;;23.30;11.13;;;;;;;;;;5047802;28;20105;-70
2022/03/09 05:51:52;;;;;;;21.17;10.63;;;;;;;;;;5064623;28;20039;-70
2022/03/09 05:54:17;;;;;;;21.40;10.75;;;;;;;;;;5079861;22;20067;-69
2022/03/09 05:56:42;;;;;;;20.73;10.50;;;;;;;;;;5057255;28;20056;-69
2022/03/09 05:59:08;;;;;;;21.65;10.52;;;;;;;;;;5067555;28;20395;-70
2022/03/09 06:01:33;;;;;;;19.67;9.85;;;;;;;;;;5064358;28;20048;-69
2022/03/09 06:03:58;;;;;;;19.65;11.05;;;;;;;;;;5063636;28;20103;-69
2022/03/09 06:06:23;;;;;;;22.80;10.32;;;;;;;;;;5060178;28;20115;-69
2022/03/09 06:08:48;;;;;;;22.70;10.52;;;;;;;;;;5061255;28;20108;-69
2022/03/09 06:11:14;;;;;;;20.77;11.25;;;;;;;;;;5067098;28;20032;-69
2022/03/09 06:13:39;;;;;;;17.25;10.05;;;;;;;;;;5060740;28;20048;-69
2022/03/09 06:16:04;;;;;;;23.77;10.38;;;;;;;;;;5066555;28;20429;-69
2022/03/09 06:18:29;;;;;;;18.70;9.90;;;;;;;;;;5060387;28;20035;-69
2022/03/09 06:20:55;;;;;;;17.70;9.45;;;;;;;;;;5061993;28;20166;-69
2022/03/09 06:23:20;;;;;;;18.38;9.60;;;;;;;;;;5065280;28;20073;-69
2022/03/09 06:25:45;;;;;;;20.73;10.82;;;;;;;;;;5061601;28;20028;-69
2022/03/09 06:28:10;;;;;;;19.40;10.63;;;;;;;;;;5060215;28;20074;-69
2022/03/09 06:30:36;;;;;;;21.00;10.23;;;;;;;;;;5061370;28;20041;-69
2022/03/09 06:33:01;;;;;;;17.08;9.40;;;;;;;;;;5055940;28;20506;-69
2022/03/09 06:35:26;;;;;;;18.60;10.70;;;;;;;;;;5065297;28;20025;-69
2022/03/09 06:37:51;;;;;;;17.60;9.88;;;;;;;;;;5055861;28;20032;-69
2022/03/09 06:40:16;;;;;;;19.33;10.43;;;;;;;;;;5060343;28;20020;-69
2022/03/09 06:42:41;;;;;;;19.27;11.30;;;;;;;;;;5069034;28;20031;-70
2022/03/09 06:45:07;;;;;;;26.40;12.63;;;;;;;;;;5060651;28;20024;-70
2022/03/09 06:47:35;;;;;;;21.60;12.27;;;;;;;;;;5063927;28;20027;-70
2022/03/09 06:50:00;;;;;;;19.25;10.55;;;;;;;;;;5064570;28;20028;-69
2022/03/09 06:52:25;;;;;;;18.95;10.70;;;;;;;;;;5060680;28;20028;-69
2022/03/09 06:54:51;;;;;;;20.55;10.25;;;;;;;;;;5058615;28;20035;-69
2022/03/09 06:57:16;;;;;;;20.92;10.25;;;;;;;;;;5062804;28;20081;-69
2022/03/09 06:59:44;;;;;;;19.35;10.02;;;;;;;;;;5066920;28;20391;-69
2022/03/09 07:02:09;;;;;;;18.95;10.32;;;;;;;;;;5059942;28;20037;-69
2022/03/09 07:04:34;;;;;;;19.40;10.70;;;;;;;;;;5060258;28;20028;-71
2022/03/09 07:06:59;;;;;;;20.08;9.63;;;;;;;;;;5063071;28;20024;-70
2022/03/09 07:09:25;;;;;;;15.95;9.48;;;;;;;;;;5056311;28;20505;-70
2022/03/09 07:11:50;;;;;;;19.23;9.70;;;;;;;;;;5061469;28;20029;-71
2022/03/09 07:14:15;;;;;;;20.13;9.25;;;;;;;;;;5062942;28;20329;-69
2022/03/09 07:16:40;;;;;;;17.88;9.00;;;;;;;;;;5059652;28;20035;-72
2022/03/09 07:19:06;;;;;;;16.02;9.20;;;;;;;;;;5061340;28;20036;-72
2022/03/09 07:21:31;;;;;;;16.42;8.77;;;;;;;;;;5057671;28;20075;-72
2022/03/09 07:23:56;;;;;;;18.25;9.70;;;;;;;;;;5039693;28;20507;-70
2022/03/09 07:26:21;;;;;;;17.23;9.10;;;;;;;;;;5061061;28;20027;-70
2022/03/09 07:28:46;;;;;;;15.77;8.60;;;;;;;;;;5062198;28;20033;-70
2022/03/09 07:31:11;;;;;;;15.60;9.38;;;;;;;;;;5060682;28;20045;-70
2022/03/09 07:33:37;;;;;;;17.58;9.90;;;;;;;;;;5058026;28;20070;-70
2022/03/09 07:36:02;;;;;;;19.00;10.13;;;;;;;;;;5061309;28;20046;-70
2022/03/09 07:38:27;;;;;;;18.98;9.75;;;;;;;;;;5061682;28;20107;-70
2022/03/09 07:40:52;;;;;;;16.33;9.88;;;;;;;;;;5061356;28;20480;-70
2022/03/09 07:43:18;;;;;;;19.00;9.70;;;;;;;;;;5065556;28;20044;-70
2022/03/09 07:45:43;;;;;;;16.75;8.93;;;;;;;;;;5065562;28;20476;-70
2022/03/09 07:48:08;;;;;;;19.02;10.30;;;;;;;;;;5065724;28;20102;-70
2022/03/09 07:50:33;;;;;;;18.15;9.68;;;;;;;;;;5044721;28;20053;-70
2022/03/09 07:52:59;;;;;;;19.30;9.63;;;;;;;;;;5059818;28;20027;-69
2022/03/09 07:55:24;;;;;;;22.35;10.50;;;;;;;;;;5068339;28;20538;-69
2022/03/09 07:57:49;;;;;;;19.30;10.68;;;;;;;;;;5066024;28;20082;-68
2022/03/09 08:00:15;;;;;;;17.30;10.27;;;;;;;;;;5063036;28;20017;-68
2022/03/09 08:02:40;;;;;;;21.00;10.98;;;;;;;;;;5066972;28;20665;-69
2022/03/09 08:05:05;;;;;;;20.08;10.55;;;;;;;;;;5063323;28;20066;-69
2022/03/09 08:07:30;;;;;;;18.35;9.73;;;;;;;;;;5059953;28;20508;-69
2022/03/09 08:09:56;;;;;;;23.20;10.15;;;;;;;;;;5063442;28;20024;-69
2022/03/09 08:12:21;;;;;;;22.05;10.43;;;;;;;;;;5058408;28;20078;-68
2022/03/09 08:14:46;;;;;;;17.13;9.60;;;;;;;;;;5060891;28;20017;-69
2022/03/09 08:17:12;;;;;;;20.20;10.23;;;;;;;;;;5060806;28;20048;-69
2022/03/09 08:19:37;;;;;;;18.83;9.40;;;;;;;;;;5062928;28;20021;-69
2022/03/09 08:22:02;;;;;;;16.02;8.10;;;;;;;;;;5066280;28;20024;-69
2022/03/09 08:24:27;;;;;;;14.45;8.15;;;;;;;;;;5066859;28;20068;-69
2022/03/09 08:26:53;;;;;;;13.07;7.75;;;;;;;;;;5060708;28;20048;-69
2022/03/09 08:29:18;;;;;;;12.40;7.18;;;;;;;;;;5084984;28;20027;-71
2022/03/09 08:31:43;;;;;;;14.20;8.38;;;;;;;;;;5060302;28;20122;-69
2022/03/09 08:34:08;;;;;;;14.68;8.10;;;;;;;;;;5066644;28;20419;-68
2022/03/09 08:36:34;;;;;;;19.17;7.40;;;;;;;;;;5062678;28;20056;-68
2022/03/09 08:39:00;;;;;;;13.50;7.38;;;;;;;;;;5063211;28;20017;-68
2022/03/09 08:41:25;;;;;;;12.32;6.50;;;;;;;;;;5061740;28;20048;-69
2022/03/09 08:43:50;;;;;;;12.50;7.00;;;;;;;;;;5060112;28;20538;-68
2022/03/09 08:46:16;;;;;;;11.75;6.65;;;;;;;;;;5067752;28;20109;-68
2022/03/09 08:48:41;;;;;;;13.02;7.20;;;;;;;;;;5063731;28;20028;-68
2022/03/09 08:51:07;;;;;;;12.77;6.85;;;;;;;;;;5068978;28;20384;-68
2022/03/09 08:53:33;;;;;;;12.52;7.45;;;;;;;;;;5063399;28;20021;-69
2022/03/09 08:55:58;;;;;;;14.32;7.65;;;;;;;;;;5054205;28;20027;-69
2022/03/09 08:58:23;;;;;;;14.32;7.93;;;;;;;;;;5066846;28;20028;-69
2022/03/09 09:00:50;;;;;;;12.77;7.35;;;;;;;;;;5061191;28;20058;-68
2022/03/09 09:03:15;;;;;;;12.68;7.57;;;;;;;;;;5061705;28;20381;-69
2022/03/09 09:05:40;;;;;;;17.88;8.65;;;;;;;;;;5060219;28;20023;-69
2022/03/09 09:08:06;;;;;;;21.20;8.32;;;;;;;;;;5061984;28;20020;-69
2022/03/09 09:10:31;;;;;;;15.65;8.20;;;;;;;;;;5066546;28;20024;-69
2022/03/09 09:12:58;;;;;;;16.60;9.00;;;;;;;;;;5061385;28;20033;-69
2022/03/09 09:15:24;;;;;;;14.90;8.25;;;;;;;;;;5068916;28;20029;-69
2022/03/09 09:17:55;;;;;;;14.35;8.35;;;;;;;;;;5063206;28;20671;-69
2022/03/09 09:20:25;;;;;;;12.82;7.70;;;;;;;;;;5064448;28;20040;-69
2022/03/09 09:22:50;;;;;;;13.85;8.05;;;;;;;;;;5060832;28;20085;-70
2022/03/09 09:25:16;;;;;;;13.30;7.88;;;;;;;;;;5062706;28;20028;-69
2022/03/09 09:27:41;;;;;;;21.48;8.63;;;;;;;;;;5063404;28;20050;-70
2022/03/09 09:30:07;;;;;;;20.75;9.30;;;;;;;;;;5059813;28;20503;-70
2022/03/09 09:32:32;;;;;;;17.40;9.15;;;;;;;;;;5067064;28;20034;-69
2022/03/09 09:34:57;;;;;;;19.25;8.85;;;;;;;;;;5060405;28;20116;-71
2022/03/09 09:37:22;;;;;;;18.63;9.05;;;;;;;;;;5063628;28;20471;-69
2022/03/09 09:39:47;;;;;;;17.00;9.35;;;;;;;;;;5064075;28;20021;-70
2022/03/09 09:42:15;;;;;;;19.80;10.13;;;;;;;;;;5048731;28;20016;-70
2022/03/09 09:44:41;;;;;;;17.35;10.02;;;;;;;;;;5058015;28;20032;-70
2022/03/09 09:47:08;;;;;;;18.08;9.43;;;;;;;;;;5061230;28;20475;-69
2022/03/09 09:49:37;;;;;;;22.38;9.57;;;;;;;;;;5052932;28;20028;-69
2022/03/09 09:52:02;;;;;;;17.48;9.40;;;;;;;;;;5059324;28;20484;-69
2022/03/09 09:54:27;;;;;;;24.35;10.00;;;;;;;;;;5058771;28;20021;-69
2022/03/09 09:56:53;;;;;;;17.58;9.85;;;;;;;;;;5058038;28;20021;-70
2022/03/09 09:59:18;;;;;;;20.30;11.10;;;;;;;;;;5061406;28;20021;-69
2022/03/09 10:01:43;;;;;;;18.83;10.18;;;;;;;;;;5063390;28;20032;-69
2022/03/09 10:04:08;;;;;;;20.48;10.40;;;;;;;;;;5064194;28;20507;-69
2022/03/09 10:06:34;;;;;;;17.05;10.00;;;;;;;;;;5063438;28;20035;-70
2022/03/09 10:09:00;;;;;;;18.80;10.40;;;;;;;;;;5055788;28;20389;-69
2022/03/09 10:11:25;;;;;;;19.27;10.25;;;;;;;;;;5066614;28;20116;-69
2022/03/09 10:13:51;;;;;;;22.05;11.18;;;;;;;;;;5058150;28;20055;-69
2022/03/09 10:16:20;;;;;;;17.52;10.00;;;;;;;;;;5064863;28;20484;-69
2022/03/09 10:18:49;;;;;;;20.15;10.60;;;;;;;;;;5064942;28;20024;-70
2022/03/09 10:21:15;;;;;;;20.67;10.85;;;;;;;;;;5061328;28;20499;-70
2022/03/09 10:24:11;;;;;;;21.10;10.15;;;;;;;;;;5063109;28;20008;-70
2022/03/09 10:26:38;;;;;;;17.55;9.50;;;;;;;;;;5053568;28;20033;-70
2022/03/09 10:29:08;;;;;;;18.00;9.45;;;;;;;;;;5069131;28;20024;-69
2022/03/09 10:31:40;;;;;;;18.13;10.32;;;;;;;;;;5059954;28;20060;-69
2022/03/09 10:34:10;;;;;;;19.27;10.55;;;;;;;;;;5061405;28;20560;-69
2022/03/09 10:36:35;;;;;;;20.10;10.88;;;;;;;;;;5064372;28;20415;-70
2022/03/09 10:39:15;;;;;;;18.88;10.25;;;;;;;;;;5066158;28;20027;-69
2022/03/09 10:41:40;;;;;;;21.65;11.30;;;;;;;;;;5046337;28;20033;-70
2022/03/09 10:44:06;;;;;;;19.75;11.10;;;;;;;;;;5060377;28;20020;-69
2022/03/09 10:46:48;;;;;;;18.33;10.07;;;;;;;;;;5043562;28;20100;-70
2022/03/09 10:49:19;;;;;;;20.75;10.73;;;;;;;;;;5047948;28;20069;-70
2022/03/09 10:51:53;;;;;;;16.27;8.85;;;;;;;;;;5050620;28;20059;-70
2022/03/09 10:54:26;;;;;;;20.83;10.57;;;;;;;;;;5046642;28;20025;-70
2022/03/09 10:57:04;;;;;;;16.58;10.10;;;;;;;;;;5045671;28;20116;-69
2022/03/09 10:59:30;;;;;;;16.52;9.55;;;;;;;;;;5063124;28;20048;-70
2022/03/09 11:02:08;;;;;;;16.48;9.35;;;;;;;;;;5047922;28;20037;-69
2022/03/09 11:04:33;;;;;;;19.35;10.45;;;;;;;;;;5062258;28;20074;-70
2022/03/09 11:06:59;;;;;;;22.35;9.00;;;;;;;;;;5045457;28;20648;-69
2022/03/09 11:09:25;;;;;;;16.88;9.88;;;;;;;;;;5049037;28;20032;-70
2022/03/09 11:11:50;;;;;;;18.50;9.85;;;;;;;;;;5062266;28;20074;-69
2022/03/09 11:14:17;;;;;;;20.27;10.05;;;;;;;;;;5066722;28;20027;-69
2022/03/09 11:16:42;;;;;;;17.98;10.27;;;;;;;;;;5051215;28;20028;-70
2022/03/09 11:19:09;;;;;;;17.75;10.05;;;;;;;;;;5051795;28;20485;-70
2022/03/09 11:21:35;;;;;;;17.15;9.05;;;;;;;;;;5067299;28;20456;-70
2022/03/09 11:24:00;;;;;;;16.25;9.18;;;;;;;;;;5065743;28;20019;-70
2022/03/09 11:26:27;;;;;;;20.42;10.02;;;;;;;;;;5051653;28;20029;-69
2022/03/09 11:29:00;;;;;;;18.77;9.70;;;;;;;;;;5063816;28;20068;-70
2022/03/09 11:31:41;;;;;;;20.67;9.63;;;;;;;;;;5065435;28;20024;-70
2022/03/09 11:34:06;;;;;;;18.00;10.30;;;;;;;;;;5032500;28;20017;-68
2022/03/09 11:36:33;;;;;;;18.90;9.82;;;;;;;;;;5050481;28;20033;-69
2022/03/09 11:39:04;;;;;;;22.00;9.90;;;;;;;;;;5066985;28;20028;-68
2022/03/09 11:41:32;;;;;;;19.10;9.85;;;;;;;;;;5061042;28;20074;-69
2022/03/09 11:44:34;;;;;;;17.27;9.73;;;;;;;;;;5067271;28;20024;-68
2022/03/09 11:46:59;;;;;;;15.55;9.32;;;;;;;;;;5007174;28;20037;-68
2022/03/09 11:49:45;;;;;;;17.88;9.45;;;;;;;;;;5056279;28;20048;-68
2022/03/09 11:52:12;;;;;;;16.25;9.43;;;;;;;;;;5065540;28;20029;-69
2022/03/09 11:54:47;;;;;;;17.35;10.05;;;;;;;;;;5062747;28;20060;-68
2022/03/09 11:57:13;;;;;;;19.10;10.68;;;;;;;;;;5067741;28;20024;-68
2022/03/09 11:59:39;;;;;;;17.45;10.20;;;;;;;;;;5064633;28;20024;-68
2022/03/09 12:02:10;;;;;;;22.33;11.00;;;;;;;;;;5064927;28;20032;-68
2022/03/09 12:04:53;;;;;;;17.55;10.18;;;;;;;;;;5067274;28;20791;-68
2022/03/09 12:07:28;;;;;;;20.02;10.00;;;;;;;;;;5065173;28;20043;-68
2022/03/09 12:09:55;;;;;;;18.20;10.88;;;;;;;;;;5062885;28;20079;-69
2022/03/09 12:12:20;;;;;;;18.92;10.23;;;;;;;;;;5063771;28;20533;-68
2022/03/09 12:15:19;;;;;;;19.38;10.73;;;;;;;;;;5067437;28;20104;-68
2022/03/09 12:17:47;;;;;;;19.05;10.63;;;;;;;;;;5045289;28;20112;-68
2022/03/09 12:20:32;;;;;;;18.33;10.73;;;;;;;;;;5066578;28;20027;-68
2022/03/09 12:22:57;;;;;;;19.95;11.70;;;;;;;;;;5067081;28;20111;-68
2022/03/09 12:25:44;;;;;;;16.98;9.93;;;;;;;;;;5063464;28;20104;-69
2022/03/09 12:28:21;;;;;;;20.33;12.23;;;;;;;;;;5063441;28;20066;-69
2022/03/09 12:30:48;;;;;;;17.17;10.40;;;;;;;;;;5065386;28;20402;-69
2022/03/09 12:33:26;;;;;;;19.30;10.98;;;;;;;;;;5062178;28;20476;-68
2022/03/09 12:35:52;;;;;;;18.23;10.50;;;;;;;;;;5063808;28;20074;-69
2022/03/09 12:38:17;;;;;;;18.95;10.55;;;;;;;;;;5065795;28;20028;-68
2022/03/09 12:40:45;;;;;;;20.52;10.00;;;;;;;;;;5034971;28;20020;-69
2022/03/09 12:43:10;;;;;;;21.10;11.10;;;;;;;;;;5063381;28;20071;-69
2022/03/09 12:45:54;;;;;;;18.50;10.68;;;;;;;;;;5062010;28;20032;-69
2022/03/09 12:48:20;;;;;;;21.20;10.57;;;;;;;;;;5027800;28;20023;-69
2022/03/09 12:50:46;;;;;;;18.88;11.07;;;;;;;;;;5065734;28;20488;-69
2022/03/09 12:53:12;;;;;;;21.20;11.52;;;;;;;;;;5046685;28;20050;-69
2022/03/09 12:55:38;;;;;;;18.77;11.02;;;;;;;;;;5060573;28;20048;-69
2022/03/09 12:58:03;;;;;;;17.90;10.43;;;;;;;;;;5045169;28;20063;-69
2022/03/09 13:00:30;;;;;;;20.13;10.90;;;;;;;;;;5059989;28;20033;-69
2022/03/09 13:02:55;;;;;;;19.25;11.32;;;;;;;;;;5060067;28;20032;-70
2022/03/09 13:05:28;;;;;;;18.15;11.00;;;;;;;;;;5031933;28;20024;-70
2022/03/09 13:07:54;;;;;;;16.38;10.15;;;;;;;;;;5066202;28;20043;-70
2022/03/09 13:10:20;;;;;;;16.77;10.82;;;;;;;;;;5059410;28;20048;-69
2022/03/09 13:13:15;;;;;;;19.58;10.50;;;;;;;;;;5064423;28;20892;-69
2022/03/09 13:15:41;;;;;;;18.55;11.63;;;;;;;;;;5047926;28;20186;-71
2022/03/09 13:18:08;;;;;;;18.67;10.52;;;;;;;;;;5059784;28;20548;-71
2022/03/09 13:20:33;;;;;;;18.27;10.90;;;;;;;;;;5061339;28;20016;-69
2022/03/09 13:23:01;;;;;;;25.65;11.65;;;;;;;;;;5058730;28;20502;-69
2022/03/09 13:25:30;;;;;;;16.17;10.43;;;;;;;;;;5058825;28;20025;-70
2022/03/09 13:28:04;;;;;;;20.58;12.10;;;;;;;;;;5059025;28;20162;-70
2022/03/09 13:30:29;;;;;;;16.83;10.43;;;;;;;;;;5063478;28;20040;-70
2022/03/09 13:32:56;;;;;;;17.25;12.13;;;;;;;;;;5058687;28;20488;-70
2022/03/09 13:35:22;;;;;;;18.75;11.50;;;;;;;;;;5063602;28;20036;-69
2022/03/09 13:37:48;;;;;;;17.23;11.45;;;;;;;;;;5059168;28;20052;-70
2022/03/09 13:40:13;;;;;;;19.67;11.80;;;;;;;;;;5058717;28;20079;-70
2022/03/09 13:42:40;;;;;;;16.35;10.82;;;;;;;;;;5064100;28;20021;-70
2022/03/09 13:45:15;;;;;;;16.45;11.13;;;;;;;;;;5062875;28;20024;-70
2022/03/09 13:47:57;;;;;;;16.55;11.18;;;;;;;;;;5063056;28;20028;-71
2022/03/09 13:50:29;;;;;;;15.95;11.98;;;;;;;;;;5061006;28;20027;-70
2022/03/09 13:53:12;;;;;;;16.48;11.73;;;;;;;;;;5060529;28;20012;-69
2022/03/09 13:55:43;;;;;;;19.83;12.53;;;;;;;;;;5063362;28;20789;-69
2022/03/09 13:58:15;;;;;;;15.55;11.95;;;;;;;;;;5062667;28;20484;-68
2022/03/09 14:00:42;;;;;;;16.55;11.82;;;;;;;;;;5044383;28;20040;-70
2022/03/09 14:03:26;;;;;;;14.70;11.35;;;;;;;;;;5064723;28;20416;-70
2022/03/09 14:05:52;;;;;;;15.15;12.23;;;;;;;;;;5060933;28;20443;-69
2022/03/09 14:08:31;;;;;;;23.17;12.90;;;;;;;;;;5064163;28;20373;-70
2022/03/09 14:11:22;;;;;;;14.48;11.57;;;;;;;;;;5059934;28;20033;-69
2022/03/09 14:14:06;;;;;;;16.33;12.25;;;;;;;;;;5060004;28;20131;-69
2022/03/09 14:16:55;;;;;;;18.92;13.15;;;;;;;;;;5064955;28;20025;-71
2022/03/09 14:19:20;;;;;;;16.77;13.35;;;;;;;;;;5062441;28;20477;-70
2022/03/09 14:21:48;;;;;;;14.63;12.50;;;;;;;;;;5042992;28;20064;-70
2022/03/09 14:24:13;;;;;;;14.35;11.25;;;;;;;;;;5057495;28;20040;-70